Fort Benning, GA

10:32 PM EDT en Agosto 02, 2015 (GMT -0400)
Hilton Heights- Lynda Lane | | Change Station
CLOSE
Current Station
Estación meteorológica personal
Location: Columbus, GA
Altura: 387 ft
Estaciones meteorológicas cercanas

Alt 387 ft 32.49 °N, 84.95 °W | Updated 29 seconds ago

Despejado
Despejado
81.5 ° F
Sensación térmica 87 ° F
N
0.0
Viento Variable Viento desde NNE
Gusts 0.0 mph

Hoy
Alta -- | Baja -- ° F
--% Posibilidad de precipitaciones
Ayer
Alta -- | Baja -- ° F
Precip. -- pul
6:54 AM 8:36 PM
Gibosa menguante, 90% visible
Presión 29.84 pul
Visibilidad 10.0 Millas
Nubes Despejado
Índice de calor 87 ° F
Punto de rocío 74 ° F
Humedad 78%
Precipitaciones 0.00 pul
Espesor de la nieve No disponible.
UV 0.0 de una escala de 12
Polen 4.90 de una escala de 12
Calidad del aire No disponible.
Flu Activity No disponible.
METAR KCSG 030151Z AUTO 00000KT 10SM CLR 29/21 A2986 RMK AO2 SLP105 T02890211

More Conditions Fewer Conditions

Presión 29.84 pul
Visibilidad 10.0 Millas
Nubes Despejado
Índice de calor 87 ° F
Punto de rocío 74 ° F
Humedad 78%
Precipitaciones 0.00 pul
Espesor de la nieve No disponible.
UV 0.0 de una escala de 12
Polen 4.90 de una escala de 12
Calidad del aire No disponible.
Flu Activity No disponible.
METAR KCSG 030151Z AUTO 00000KT 10SM CLR 29/21 A2986 RMK AO2 SLP105 T02890211

More Conditions Fewer Conditions

10-Day Weather Forecast

×

Almanac

Astronomía

Aug. 02, 2015 Salida Puesta
Hora real
Crepúsculo civil
Crepúsculo náutico
Crepúsculo astronómico
Luna
Horas de luz
Horas de luz
Tomorrow will be .
, % of the Moon is Illuminated

Extremos de hoy

Máximos del estado Bajos del estado

Community

WunderPhotos

Upload Photos

1,843,524 ¡fotos cargadas!

WunderBlogs® & News

Nearby

Calidad del aire

  Calidad del aire Índice AQ Contaminante
Not available.

Grosos de nieve

Estación Profundido Altura

Actividad de terremotos

Ciudad Distance Mag. Tiempo y dato
Magnitud mínima muestra es 2,5.

Temperaturas de aguas costeras

Lugar Temperatura

Stations

Estaciones meteorológicas cercanas

Ubicación de la estación Temp. Vientos helados Punto de rocío Humedad Viento Precip. Alt Actualizado Tipo